sensor_id;sensor_type;location;lat;lon;timestamp;temperature;humidity
47338;DHT22;33069;51.970;5.892;2023-04-01T00:00:54;10.00;89.40
47338;DHT22;33069;51.970;5.892;2023-04-01T00:03:21;10.10;89.50
47338;DHT22;33069;51.970;5.892;2023-04-01T00:05:48;10.00;89.50
47338;DHT22;33069;51.970;5.892;2023-04-01T00:08:14;9.90;89.60
47338;DHT22;33069;51.970;5.892;2023-04-01T00:10:39;9.90;89.60
47338;DHT22;33069;51.970;5.892;2023-04-01T00:13:05;9.90;89.80
47338;DHT22;33069;51.970;5.892;2023-04-01T00:15:31;10.00;89.90
47338;DHT22;33069;51.970;5.892;2023-04-01T00:17:57;10.10;89.90
47338;DHT22;33069;51.970;5.892;2023-04-01T00:20:23;10.10;89.80
47338;DHT22;33069;51.970;5.892;2023-04-01T00:22:48;10.10;89.80
47338;DHT22;33069;51.970;5.892;2023-04-01T00:25:14;10.00;89.80
47338;DHT22;33069;51.970;5.892;2023-04-01T00:27:40;9.90;89.80
47338;DHT22;33069;51.970;5.892;2023-04-01T00:30:07;9.90;89.90
47338;DHT22;33069;51.970;5.892;2023-04-01T00:32:34;10.00;90.00
47338;DHT22;33069;51.970;5.892;2023-04-01T00:35:00;10.00;90.00
47338;DHT22;33069;51.970;5.892;2023-04-01T00:37:27;10.00;90.00
47338;DHT22;33069;51.970;5.892;2023-04-01T00:39:53;10.10;90.10
47338;DHT22;33069;51.970;5.892;2023-04-01T00:42:20;10.00;90.00
47338;DHT22;33069;51.970;5.892;2023-04-01T00:44:49;10.10;90.00
47338;DHT22;33069;51.970;5.892;2023-04-01T00:47:16;10.10;90.00
47338;DHT22;33069;51.970;5.892;2023-04-01T00:49:45;10.10;90.00
47338;DHT22;33069;51.970;5.892;2023-04-01T00:52:15;10.20;90.00
47338;DHT22;33069;51.970;5.892;2023-04-01T00:54:45;10.10;89.90
47338;DHT22;33069;51.970;5.892;2023-04-01T00:57:28;10.20;89.90
47338;DHT22;33069;51.970;5.892;2023-04-01T00:59:56;10.00;89.90
47338;DHT22;33069;51.970;5.892;2023-04-01T01:02:22;10.10;89.90
47338;DHT22;33069;51.970;5.892;2023-04-01T01:04:48;10.00;89.90
47338;DHT22;33069;51.970;5.892;2023-04-01T01:07:42;10.10;89.90
47338;DHT22;33069;51.970;5.892;2023-04-01T01:10:26;10.10;89.90
47338;DHT22;33069;51.970;5.892;2023-04-01T01:13:30;10.10;90.00
47338;DHT22;33069;51.970;5.892;2023-04-01T01:16:06;10.20;89.90
47338;DHT22;33069;51.970;5.892;2023-04-01T01:18:54;10.10;89.80
47338;DHT22;33069;51.970;5.892;2023-04-01T01:27:10;10.20;89.90
47338;DHT22;33069;51.970;5.892;2023-04-01T01:37:40;10.30;89.70
47338;DHT22;33069;51.970;5.892;2023-04-01T01:40:10;10.20;89.60
47338;DHT22;33069;51.970;5.892;2023-04-01T01:42:39;10.00;89.60
47338;DHT22;33069;51.970;5.892;2023-04-01T01:45:08;10.10;89.90
47338;DHT22;33069;51.970;5.892;2023-04-01T01:47:35;10.20;90.00
47338;DHT22;33069;51.970;5.892;2023-04-01T01:50:03;10.10;90.00
47338;DHT22;33069;51.970;5.892;2023-04-01T01:52:30;10.00;90.10
47338;DHT22;33069;51.970;5.892;2023-04-01T01:54:57;10.20;90.30
47338;DHT22;33069;51.970;5.892;2023-04-01T01:57:31;10.10;90.30
47338;DHT22;33069;51.970;5.892;2023-04-01T02:00:03;10.20;90.20
47338;DHT22;33069;51.970;5.892;2023-04-01T02:02:31;10.00;90.00
47338;DHT22;33069;51.970;5.892;2023-04-01T02:04:57;10.10;90.20
47338;DHT22;33069;51.970;5.892;2023-04-01T02:07:28;10.00;89.90
47338;DHT22;33069;51.970;5.892;2023-04-01T02:09:56;10.00;89.90
47338;DHT22;33069;51.970;5.892;2023-04-01T02:12:22;9.80;89.90
47338;DHT22;33069;51.970;5.892;2023-04-01T02:15:06;9.80;90.10
47338;DHT22;33069;51.970;5.892;2023-04-01T02:17:33;9.80;90.20
47338;DHT22;33069;51.970;5.892;2023-04-01T02:20:13;10.00;90.40
47338;DHT22;33069;51.970;5.892;2023-04-01T02:22:44;10.00;90.50
47338;DHT22;33069;51.970;5.892;2023-04-01T02:25:18;10.00;90.50
47338;DHT22;33069;51.970;5.892;2023-04-01T02:27:46;9.90;90.50
47338;DHT22;33069;51.970;5.892;2023-04-01T02:30:14;9.90;90.40
47338;DHT22;33069;51.970;5.892;2023-04-01T02:32:40;9.90;90.40
47338;DHT22;33069;51.970;5.892;2023-04-01T02:35:09;9.80;90.30
47338;DHT22;33069;51.970;5.892;2023-04-01T02:37:36;9.70;90.30
47338;DHT22;33069;51.970;5.892;2023-04-01T02:40:06;9.70;90.40
47338;DHT22;33069;51.970;5.892;2023-04-01T02:42:33;9.70;90.40
47338;DHT22;33069;51.970;5.892;2023-04-01T02:44:59;9.70;90.50
47338;DHT22;33069;51.970;5.892;2023-04-01T02:47:25;9.70;90.60
47338;DHT22;33069;51.970;5.892;2023-04-01T02:49:50;9.70;90.60
47338;DHT22;33069;51.970;5.892;2023-04-01T02:52:16;9.70;90.60
47338;DHT22;33069;51.970;5.892;2023-04-01T02:54:42;9.70;90.60
47338;DHT22;33069;51.970;5.892;2023-04-01T02:57:07;9.60;90.60
47338;DHT22;33069;51.970;5.892;2023-04-01T02:59:33;9.80;90.70
47338;DHT22;33069;51.970;5.892;2023-04-01T03:01:59;9.70;90.70
47338;DHT22;33069;51.970;5.892;2023-04-01T03:04:24;9.80;90.70
47338;DHT22;33069;51.970;5.892;2023-04-01T03:06:50;9.80;90.70
47338;DHT22;33069;51.970;5.892;2023-04-01T03:09:16;9.70;90.60
47338;DHT22;33069;51.970;5.892;2023-04-01T03:11:42;9.70;90.60
47338;DHT22;33069;51.970;5.892;2023-04-01T03:14:08;9.70;90.70
47338;DHT22;33069;51.970;5.892;2023-04-01T03:16:33;9.60;90.70
47338;DHT22;33069;51.970;5.892;2023-04-01T03:18:59;9.70;90.80
47338;DHT22;33069;51.970;5.892;2023-04-01T03:21:27;9.70;90.80
47338;DHT22;33069;51.970;5.892;2023-04-01T03:23:53;9.60;90.80
47338;DHT22;33069;51.970;5.892;2023-04-01T03:26:19;9.70;90.80
47338;DHT22;33069;51.970;5.892;2023-04-01T03:28:45;9.70;90.70
47338;DHT22;33069;51.970;5.892;2023-04-01T03:31:11;9.60;90.60
47338;DHT22;33069;51.970;5.892;2023-04-01T03:33:36;9.70;90.70
47338;DHT22;33069;51.970;5.892;2023-04-01T03:36:03;9.50;90.50
47338;DHT22;33069;51.970;5.892;2023-04-01T03:38:34;9.50;90.60
47338;DHT22;33069;51.970;5.892;2023-04-01T03:41:00;9.70;90.70
47338;DHT22;33069;51.970;5.892;2023-04-01T03:43:26;9.70;90.60
47338;DHT22;33069;51.970;5.892;2023-04-01T03:45:52;9.70;90.40
47338;DHT22;33069;51.970;5.892;2023-04-01T03:48:18;9.70;90.40
47338;DHT22;33069;51.970;5.892;2023-04-01T03:50:44;9.60;90.40
47338;DHT22;33069;51.970;5.892;2023-04-01T03:53:10;9.60;90.50
47338;DHT22;33069;51.970;5.892;2023-04-01T03:55:37;9.60;90.50
47338;DHT22;33069;51.970;5.892;2023-04-01T03:58:05;9.60;90.50
47338;DHT22;33069;51.970;5.892;2023-04-01T04:00:31;9.50;90.50
47338;DHT22;33069;51.970;5.892;2023-04-01T04:02:58;9.50;90.50
47338;DHT22;33069;51.970;5.892;2023-04-01T04:05:24;9.50;90.50
47338;DHT22;33069;51.970;5.892;2023-04-01T04:07:51;9.60;90.60
47338;DHT22;33069;51.970;5.892;2023-04-01T04:10:17;9.60;90.60
47338;DHT22;33069;51.970;5.892;2023-04-01T04:12:43;9.60;90.60
47338;DHT22;33069;51.970;5.892;2023-04-01T04:15:09;9.40;90.60
47338;DHT22;33069;51.970;5.892;2023-04-01T04:17:35;9.50;90.60
47338;DHT22;33069;51.970;5.892;2023-04-01T04:20:01;9.70;90.60
47338;DHT22;33069;51.970;5.892;2023-04-01T04:22:26;9.50;90.40
47338;DHT22;33069;51.970;5.892;2023-04-01T04:24:52;9.50;90.60
47338;DHT22;33069;51.970;5.892;2023-04-01T04:27:18;9.50;90.70
47338;DHT22;33069;51.970;5.892;2023-04-01T04:29:44;9.50;90.70
47338;DHT22;33069;51.970;5.892;2023-04-01T04:32:10;9.40;90.70
47338;DHT22;33069;51.970;5.892;2023-04-01T04:34:35;9.50;90.70
47338;DHT22;33069;51.970;5.892;2023-04-01T04:37:01;9.40;90.80
47338;DHT22;33069;51.970;5.892;2023-04-01T04:39:27;9.50;90.90
47338;DHT22;33069;51.970;5.892;2023-04-01T04:41:53;9.30;90.90
47338;DHT22;33069;51.970;5.892;2023-04-01T04:44:18;9.50;91.00
47338;DHT22;33069;51.970;5.892;2023-04-01T04:46:44;9.50;90.90
47338;DHT22;33069;51.970;5.892;2023-04-01T04:49:10;9.50;90.80
47338;DHT22;33069;51.970;5.892;2023-04-01T04:51:36;9.50;90.80
47338;DHT22;33069;51.970;5.892;2023-04-01T04:54:03;9.50;90.90
47338;DHT22;33069;51.970;5.892;2023-04-01T04:56:29;9.50;90.90
47338;DHT22;33069;51.970;5.892;2023-04-01T04:58:56;9.40;90.90
47338;DHT22;33069;51.970;5.892;2023-04-01T05:01:22;9.50;90.90
47338;DHT22;33069;51.970;5.892;2023-04-01T05:03:47;9.40;91.00
47338;DHT22;33069;51.970;5.892;2023-04-01T05:06:15;9.40;91.00
47338;DHT22;33069;51.970;5.892;2023-04-01T05:08:42;9.40;91.10
47338;DHT22;33069;51.970;5.892;2023-04-01T05:11:19;9.50;91.20
47338;DHT22;33069;51.970;5.892;2023-04-01T05:13:46;9.30;91.20
47338;DHT22;33069;51.970;5.892;2023-04-01T05:16:14;9.30;91.30
47338;DHT22;33069;51.970;5.892;2023-04-01T05:18:40;9.50;91.40
47338;DHT22;33069;51.970;5.892;2023-04-01T05:21:08;9.40;91.40
47338;DHT22;33069;51.970;5.892;2023-04-01T05:23:35;9.40;91.40
47338;DHT22;33069;51.970;5.892;2023-04-01T05:26:05;9.30;91.40
47338;DHT22;33069;51.970;5.892;2023-04-01T05:28:31;9.50;91.50
47338;DHT22;33069;51.970;5.892;2023-04-01T05:31:01;9.50;91.60
47338;DHT22;33069;51.970;5.892;2023-04-01T05:33:27;9.50;91.60
47338;DHT22;33069;51.970;5.892;2023-04-01T05:35:54;9.40;91.60
47338;DHT22;33069;51.970;5.892;2023-04-01T05:38:20;9.50;91.70
47338;DHT22;33069;51.970;5.892;2023-04-01T05:40:46;9.40;91.70
47338;DHT22;33069;51.970;5.892;2023-04-01T05:43:12;9.40;91.70
47338;DHT22;33069;51.970;5.892;2023-04-01T05:45:38;9.40;91.70
47338;DHT22;33069;51.970;5.892;2023-04-01T05:48:04;9.40;91.80
47338;DHT22;33069;51.970;5.892;2023-04-01T05:50:30;9.40;91.80
47338;DHT22;33069;51.970;5.892;2023-04-01T05:52:56;9.30;91.80
47338;DHT22;33069;51.970;5.892;2023-04-01T05:55:21;9.50;91.90
47338;DHT22;33069;51.970;5.892;2023-04-01T05:57:47;9.60;92.00
47338;DHT22;33069;51.970;5.892;2023-04-01T06:00:15;9.70;92.00
47338;DHT22;33069;51.970;5.892;2023-04-01T06:02:41;9.50;92.00
47338;DHT22;33069;51.970;5.892;2023-04-01T06:05:21;9.40;92.00
47338;DHT22;33069;51.970;5.892;2023-04-01T06:07:47;9.40;91.90
47338;DHT22;33069;51.970;5.892;2023-04-01T06:10:18;9.30;91.90
47338;DHT22;33069;51.970;5.892;2023-04-01T06:26:12;9.50;91.80
47338;DHT22;33069;51.970;5.892;2023-04-01T06:31:42;9.50;91.70
47338;DHT22;33069;51.970;5.892;2023-04-01T06:39:42;9.50;91.60
47338;DHT22;33069;51.970;5.892;2023-04-01T06:50:34;9.70;91.60
47338;DHT22;33069;51.970;5.892;2023-04-01T06:55:47;9.50;91.60
47338;DHT22;33069;51.970;5.892;2023-04-01T06:59:18;9.60;91.70
47338;DHT22;33069;51.970;5.892;2023-04-01T07:01:33;9.60;91.70
47338;DHT22;33069;51.970;5.892;2023-04-01T07:04:05;9.60;91.70
47338;DHT22;33069;51.970;5.892;2023-04-01T07:07:05;9.70;91.70
47338;DHT22;33069;51.970;5.892;2023-04-01T07:09:40;9.80;91.80
47338;DHT22;33069;51.970;5.892;2023-04-01T07:14:59;9.80;91.90
47338;DHT22;33069;51.970;5.892;2023-04-01T07:17:30;9.90;91.90
47338;DHT22;33069;51.970;5.892;2023-04-01T07:23:10;9.90;91.90
47338;DHT22;33069;51.970;5.892;2023-04-01T07:25:42;9.80;91.90
47338;DHT22;33069;51.970;5.892;2023-04-01T07:28:16;10.00;92.00
47338;DHT22;33069;51.970;5.892;2023-04-01T07:39:09;9.80;92.00
47338;DHT22;33069;51.970;5.892;2023-04-01T07:50:26;10.10;92.10
47338;DHT22;33069;51.970;5.892;2023-04-01T07:56:10;10.30;92.10
47338;DHT22;33069;51.970;5.892;2023-04-01T08:20:33;10.30;92.00
47338;DHT22;33069;51.970;5.892;2023-04-01T08:23:11;10.30;92.00
47338;DHT22;33069;51.970;5.892;2023-04-01T08:25:56;10.40;92.00
47338;DHT22;33069;51.970;5.892;2023-04-01T08:28:46;10.40;92.00
47338;DHT22;33069;51.970;5.892;2023-04-01T08:33:55;10.60;92.10
47338;DHT22;33069;51.970;5.892;2023-04-01T08:36:37;10.30;92.00
47338;DHT22;33069;51.970;5.892;2023-04-01T08:39:05;10.40;92.00
47338;DHT22;33069;51.970;5.892;2023-04-01T08:41:42;10.40;92.00
47338;DHT22;33069;51.970;5.892;2023-04-01T08:55:22;10.40;92.00
47338;DHT22;33069;51.970;5.892;2023-04-01T09:00:38;10.30;91.90
47338;DHT22;33069;51.970;5.892;2023-04-01T09:06:20;10.40;91.90
47338;DHT22;33069;51.970;5.892;2023-04-01T09:22:21;10.50;91.60
47338;DHT22;33069;51.970;5.892;2023-04-01T09:36:45;10.60;91.40
47338;DHT22;33069;51.970;5.892;2023-04-01T09:42:39;10.40;91.10
47338;DHT22;33069;51.970;5.892;2023-04-01T09:48:29;10.60;91.10
47338;DHT22;33069;51.970;5.892;2023-04-01T09:51:34;10.70;91.10
47338;DHT22;33069;51.970;5.892;2023-04-01T09:54:06;10.40;91.00
47338;DHT22;33069;51.970;5.892;2023-04-01T09:56:49;10.40;91.00
47338;DHT22;33069;51.970;5.892;2023-04-01T09:59:54;10.30;91.00
47338;DHT22;33069;51.970;5.892;2023-04-01T10:08:29;10.20;91.10
47338;DHT22;33069;51.970;5.892;2023-04-01T10:23:00;10.40;91.20
47338;DHT22;33069;51.970;5.892;2023-04-01T10:33:54;10.50;91.10
47338;DHT22;33069;51.970;5.892;2023-04-01T10:53:46;10.90;91.30
47338;DHT22;33069;51.970;5.892;2023-04-01T11:15:54;11.20;90.80
47338;DHT22;33069;51.970;5.892;2023-04-01T11:18:48;11.20;90.60
47338;DHT22;33069;51.970;5.892;2023-04-01T11:30:22;11.20;89.60
47338;DHT22;33069;51.970;5.892;2023-04-01T11:33:04;11.10;89.70
47338;DHT22;33069;51.970;5.892;2023-04-01T11:38:26;10.30;89.50
47338;DHT22;33069;51.970;5.892;2023-04-01T11:46:15;10.80;90.10
47338;DHT22;33069;51.970;5.892;2023-04-01T11:49:09;10.80;90.00
47338;DHT22;33069;51.970;5.892;2023-04-01T12:06:23;10.80;90.20
47338;DHT22;33069;51.970;5.892;2023-04-01T12:11:34;10.70;90.40
47338;DHT22;33069;51.970;5.892;2023-04-01T12:19:51;10.60;90.60
47338;DHT22;33069;51.970;5.892;2023-04-01T12:33:06;10.50;90.90
47338;DHT22;33069;51.970;5.892;2023-04-01T12:38:44;10.40;91.00
47338;DHT22;33069;51.970;5.892;2023-04-01T12:49:42;10.60;91.20
47338;DHT22;33069;51.970;5.892;2023-04-01T12:52:25;10.70;91.20
47338;DHT22;33069;51.970;5.892;2023-04-01T13:09:06;10.70;91.20
47338;DHT22;33069;51.970;5.892;2023-04-01T13:22:46;11.00;91.10
47338;DHT22;33069;51.970;5.892;2023-04-01T13:28:16;11.30;91.10
47338;DHT22;33069;51.970;5.892;2023-04-01T13:30:58;11.30;91.10
47338;DHT22;33069;51.970;5.892;2023-04-01T13:41:55;11.30;90.80
47338;DHT22;33069;51.970;5.892;2023-04-01T13:44:37;11.10;90.70
47338;DHT22;33069;51.970;5.892;2023-04-01T13:52:58;11.20;90.70
47338;DHT22;33069;51.970;5.892;2023-04-01T13:55:48;11.30;90.70
47338;DHT22;33069;51.970;5.892;2023-04-01T14:06:56;11.00;90.60
47338;DHT22;33069;51.970;5.892;2023-04-01T14:09:45;10.90;90.50
47338;DHT22;33069;51.970;5.892;2023-04-01T14:15:18;10.90;90.50
47338;DHT22;33069;51.970;5.892;2023-04-01T14:18:37;11.00;90.50
47338;DHT22;33069;51.970;5.892;2023-04-01T14:40:48;11.00;90.30
47338;DHT22;33069;51.970;5.892;2023-04-01T14:46:50;11.10;90.30
47338;DHT22;33069;51.970;5.892;2023-04-01T14:51:44;11.10;90.20
47338;DHT22;33069;51.970;5.892;2023-04-01T14:56:47;11.20;90.20
47338;DHT22;33069;51.970;5.892;2023-04-01T14:59:15;11.30;90.30
47338;DHT22;33069;51.970;5.892;2023-04-01T15:01:51;11.30;90.20
47338;DHT22;33069;51.970;5.892;2023-04-01T15:18:27;11.20;89.50
47338;DHT22;33069;51.970;5.892;2023-04-01T15:29:22;11.50;89.50
47338;DHT22;33069;51.970;5.892;2023-04-01T15:40:27;11.20;89.40
47338;DHT22;33069;51.970;5.892;2023-04-01T15:43:15;11.10;89.50
47338;DHT22;33069;51.970;5.892;2023-04-01T15:46:14;10.80;89.40
47338;DHT22;33069;51.970;5.892;2023-04-01T15:52:05;10.70;89.60
47338;DHT22;33069;51.970;5.892;2023-04-01T15:57:40;10.70;89.80
47338;DHT22;33069;51.970;5.892;2023-04-01T16:00:29;10.70;89.80
47338;DHT22;33069;51.970;5.892;2023-04-01T16:16:31;10.60;89.80
47338;DHT22;33069;51.970;5.892;2023-04-01T16:22:00;10.60;89.70
47338;DHT22;33069;51.970;5.892;2023-04-01T16:29:47;10.60;89.40
47338;DHT22;33069;51.970;5.892;2023-04-01T16:32:31;10.60;89.40
47338;DHT22;33069;51.970;5.892;2023-04-01T16:35:28;10.70;89.50
47338;DHT22;33069;51.970;5.892;2023-04-01T16:38:22;10.60;89.30
47338;DHT22;33069;51.970;5.892;2023-04-01T16:41:24;10.70;89.30
47338;DHT22;33069;51.970;5.892;2023-04-01T16:43:58;10.70;89.30
47338;DHT22;33069;51.970;5.892;2023-04-01T16:46:36;10.60;89.40
47338;DHT22;33069;51.970;5.892;2023-04-01T16:51:52;10.50;89.40
47338;DHT22;33069;51.970;5.892;2023-04-01T17:05:32;10.20;89.20
47338;DHT22;33069;51.970;5.892;2023-04-01T17:07:47;10.20;89.30
47338;DHT22;33069;51.970;5.892;2023-04-01T17:24:34;9.80;89.40
47338;DHT22;33069;51.970;5.892;2023-04-01T17:30:10;9.70;89.30
47338;DHT22;33069;51.970;5.892;2023-04-01T17:32:54;9.70;89.10
47338;DHT22;33069;51.970;5.892;2023-04-01T17:47:21;9.50;88.70
47338;DHT22;33069;51.970;5.892;2023-04-01T17:55:37;9.60;88.40
47338;DHT22;33069;51.970;5.892;2023-04-01T18:00:50;9.50;88.30
47338;DHT22;33069;51.970;5.892;2023-04-01T18:09:00;9.20;88.60
47338;DHT22;33069;51.970;5.892;2023-04-01T18:14:45;9.20;88.60
47338;DHT22;33069;51.970;5.892;2023-04-01T18:18:26;9.10;88.70
47338;DHT22;33069;51.970;5.892;2023-04-01T18:20:58;9.10;88.90
47338;DHT22;33069;51.970;5.892;2023-04-01T18:23:27;9.00;88.70
47338;DHT22;33069;51.970;5.892;2023-04-01T18:26:08;9.10;88.60
47338;DHT22;33069;51.970;5.892;2023-04-01T18:31:16;9.20;88.50
47338;DHT22;33069;51.970;5.892;2023-04-01T18:34:03;9.10;88.50
47338;DHT22;33069;51.970;5.892;2023-04-01T18:36:49;8.90;88.80
47338;DHT22;33069;51.970;5.892;2023-04-01T18:39:33;8.90;89.20
47338;DHT22;33069;51.970;5.892;2023-04-01T18:44:48;8.80;89.50
47338;DHT22;33069;51.970;5.892;2023-04-01T18:47:43;8.80;89.50
47338;DHT22;33069;51.970;5.892;2023-04-01T19:01:22;8.70;89.30
47338;DHT22;33069;51.970;5.892;2023-04-01T19:06:49;8.60;89.10
47338;DHT22;33069;51.970;5.892;2023-04-01T19:09:19;8.60;89.10
47338;DHT22;33069;51.970;5.892;2023-04-01T19:20:13;8.70;89.00
47338;DHT22;33069;51.970;5.892;2023-04-01T19:25:58;8.60;89.00
47338;DHT22;33069;51.970;5.892;2023-04-01T19:31:45;8.40;89.30
47338;DHT22;33069;51.970;5.892;2023-04-01T19:37:27;8.30;89.20
47338;DHT22;33069;51.970;5.892;2023-04-01T19:50:59;8.20;89.20
47338;DHT22;33069;51.970;5.892;2023-04-01T19:53:50;8.20;89.40
47338;DHT22;33069;51.970;5.892;2023-04-01T19:56:21;8.20;89.50
47338;DHT22;33069;51.970;5.892;2023-04-01T19:59:29;8.10;89.60
47338;DHT22;33069;51.970;5.892;2023-04-01T20:04:46;8.20;89.80
47338;DHT22;33069;51.970;5.892;2023-04-01T20:07:27;8.00;89.80
47338;DHT22;33069;51.970;5.892;2023-04-01T20:10:15;7.90;89.70
47338;DHT22;33069;51.970;5.892;2023-04-01T20:12:58;7.90;89.60
47338;DHT22;33069;51.970;5.892;2023-04-01T20:15:34;7.70;89.50
47338;DHT22;33069;51.970;5.892;2023-04-01T20:20:56;7.80;89.50
47338;DHT22;33069;51.970;5.892;2023-04-01T20:26:12;7.80;89.50
47338;DHT22;33069;51.970;5.892;2023-04-01T20:28:42;7.70;89.40
47338;DHT22;33069;51.970;5.892;2023-04-01T20:31:30;7.70;89.40
47338;DHT22;33069;51.970;5.892;2023-04-01T20:39:23;7.70;89.50
47338;DHT22;33069;51.970;5.892;2023-04-01T20:44:47;7.60;89.30
47338;DHT22;33069;51.970;5.892;2023-04-01T21:03:54;7.30;88.50
47338;DHT22;33069;51.970;5.892;2023-04-01T21:06:52;7.30;88.50
47338;DHT22;33069;51.970;5.892;2023-04-01T21:13:08;7.30;88.30
47338;DHT22;33069;51.970;5.892;2023-04-01T21:15:33;7.30;88.10
47338;DHT22;33069;51.970;5.892;2023-04-01T21:24:28;7.30;87.90
47338;DHT22;33069;51.970;5.892;2023-04-01T21:35:32;7.20;88.10
47338;DHT22;33069;51.970;5.892;2023-04-01T21:38:08;7.20;88.10
47338;DHT22;33069;51.970;5.892;2023-04-01T21:51:52;7.10;87.70
47338;DHT22;33069;51.970;5.892;2023-04-01T21:54:31;7.10;87.60
47338;DHT22;33069;51.970;5.892;2023-04-01T22:00:12;7.00;87.00
47338;DHT22;33069;51.970;5.892;2023-04-01T22:05:28;7.10;86.90
47338;DHT22;33069;51.970;5.892;2023-04-01T22:14:12;7.00;87.00
47338;DHT22;33069;51.970;5.892;2023-04-01T22:16:50;7.00;86.90
47338;DHT22;33069;51.970;5.892;2023-04-01T22:19:43;6.90;86.80
47338;DHT22;33069;51.970;5.892;2023-04-01T22:30:24;6.90;87.10
47338;DHT22;33069;51.970;5.892;2023-04-01T22:43:37;6.70;87.60
47338;DHT22;33069;51.970;5.892;2023-04-01T22:54:32;6.70;87.60
47338;DHT22;33069;51.970;5.892;2023-04-01T22:59:49;6.60;87.70
47338;DHT22;33069;51.970;5.892;2023-04-01T23:02:25;6.60;87.70
47338;DHT22;33069;51.970;5.892;2023-04-01T23:04:56;6.70;87.50
47338;DHT22;33069;51.970;5.892;2023-04-01T23:07:52;6.70;87.30
47338;DHT22;33069;51.970;5.892;2023-04-01T23:13:06;6.70;87.00
47338;DHT22;33069;51.970;5.892;2023-04-01T23:15:36;6.70;86.80
47338;DHT22;33069;51.970;5.892;2023-04-01T23:18:22;6.70;86.80
47338;DHT22;33069;51.970;5.892;2023-04-01T23:21:00;6.70;86.80
47338;DHT22;33069;51.970;5.892;2023-04-01T23:23:39;6.70;86.90
47338;DHT22;33069;51.970;5.892;2023-04-01T23:26:15;6.60;86.90
47338;DHT22;33069;51.970;5.892;2023-04-01T23:28:44;6.50;87.00
47338;DHT22;33069;51.970;5.892;2023-04-01T23:31:39;6.50;87.10
47338;DHT22;33069;51.970;5.892;2023-04-01T23:36:49;6.50;87.10
47338;DHT22;33069;51.970;5.892;2023-04-01T23:39:29;6.50;87.10
47338;DHT22;33069;51.970;5.892;2023-04-01T23:42:03;6.60;87.00
47338;DHT22;33069;51.970;5.892;2023-04-01T23:44:29;6.50;86.70
47338;DHT22;33069;51.970;5.892;2023-04-01T23:46:57;6.60;86.80
47338;DHT22;33069;51.970;5.892;2023-04-01T23:52:31;6.50;86.90
47338;DHT22;33069;51.970;5.892;2023-04-01T23:55:22;6.40;86.90
47338;DHT22;33069;51.970;5.892;2023-04-01T23:58:13;6.40;87.10
